createdAt,value
2017-02-06T00:00:07.336Z,5.65
2017-02-06T00:01:07.870Z,5.75
2017-02-06T00:02:07.494Z,5.55
2017-02-06T00:03:08.018Z,5.59
2017-02-06T00:04:07.680Z,5.52
2017-02-06T00:05:07.198Z,5.62
2017-02-06T00:06:08.040Z,5.61
2017-02-06T00:07:07.637Z,5.62
2017-02-06T00:08:07.081Z,5.61
2017-02-06T00:09:07.742Z,5.50
2017-02-06T00:10:07.325Z,5.59
2017-02-06T00:11:07.849Z,5.48
2017-02-06T00:12:07.512Z,5.49
2017-02-06T00:13:08.047Z,5.68
2017-02-06T00:14:07.632Z,5.62
2017-02-06T00:15:07.158Z,5.47
2017-02-06T00:16:07.736Z,5.56
2017-02-06T00:17:07.638Z,5.67
2017-02-06T00:18:17.098Z,5.52
2017-02-06T00:19:07.626Z,5.53
2017-02-06T00:20:07.289Z,5.63
2017-02-06T00:21:08.065Z,5.54
2017-02-06T00:22:07.784Z,5.52
2017-02-06T00:23:07.248Z,5.64
2017-02-06T00:24:07.712Z,5.69
2017-02-06T00:25:07.179Z,5.56
2017-02-06T00:26:07.664Z,5.71
2017-02-06T00:27:07.156Z,5.72
2017-02-06T00:28:07.657Z,5.72
2017-02-06T00:29:07.157Z,5.65
2017-02-06T00:30:07.695Z,5.58
2017-02-06T00:31:07.576Z,5.58
2017-02-06T00:32:08.125Z,5.61
2017-02-06T00:33:07.696Z,5.78
2017-02-06T00:34:07.380Z,5.73
2017-02-06T00:35:08.066Z,5.63
2017-02-06T00:36:07.640Z,5.52
2017-02-06T00:37:07.213Z,5.67
2017-02-06T00:38:07.803Z,5.60
2017-02-06T00:39:07.324Z,5.45
2017-02-06T00:40:07.897Z,5.67
2017-02-06T00:41:07.610Z,5.66
2017-02-06T00:42:07.127Z,5.68
2017-02-06T00:43:07.685Z,5.65
2017-02-06T00:44:07.172Z,5.50
2017-02-06T00:45:07.659Z,5.57
2017-02-06T00:46:07.146Z,5.68
2017-02-06T00:47:07.997Z,5.54
2017-02-06T00:48:07.691Z,5.39
2017-02-06T00:49:07.320Z,5.34
2017-02-06T00:50:07.911Z,5.61
2017-02-06T00:51:07.748Z,5.54
2017-02-06T00:52:07.200Z,5.62
2017-02-06T00:53:07.780Z,5.30
2017-02-06T00:54:07.629Z,5.26
2017-02-06T00:55:07.431Z,5.45
2017-02-06T00:56:08.012Z,5.43
2017-02-06T00:57:07.555Z,5.37
2017-02-06T00:58:08.091Z,5.51
2017-02-06T00:59:07.757Z,5.55
2017-02-06T01:00:07.277Z,5.68
2017-02-06T01:01:07.833Z,5.60
2017-02-06T01:02:07.568Z,5.29
2017-02-06T01:03:08.147Z,5.28
2017-02-06T01:04:07.705Z,5.45
2017-02-06T01:05:07.196Z,5.42
2017-02-06T01:06:07.745Z,5.49
2017-02-06T01:07:07.314Z,5.63
2017-02-06T01:08:07.905Z,5.66
2017-02-06T01:09:07.478Z,5.46
2017-02-06T01:10:08.032Z,5.52
2017-02-06T01:11:07.533Z,5.63
2017-02-06T01:12:08.173Z,5.66
2017-02-06T01:13:07.943Z,5.60
2017-02-06T01:14:07.546Z,5.35
2017-02-06T01:15:08.077Z,5.34
2017-02-06T01:16:07.841Z,5.47
2017-02-06T01:17:07.607Z,5.46
2017-02-06T01:18:07.097Z,5.31
2017-02-06T01:19:07.637Z,5.50
2017-02-06T01:20:07.181Z,5.43
2017-02-06T01:21:07.748Z,5.32
2017-02-06T01:22:07.387Z,5.42
2017-02-06T01:23:08.175Z,5.40
2017-02-06T01:24:07.670Z,5.46
2017-02-06T01:25:07.306Z,5.36
2017-02-06T01:26:07.858Z,5.38
2017-02-06T01:27:07.421Z,5.39
2017-02-06T01:28:07.948Z,5.21
2017-02-06T01:29:07.490Z,5.22
2017-02-06T01:30:08.044Z,5.14
2017-02-06T01:31:07.655Z,5.29
2017-02-06T01:32:07.371Z,5.40
2017-02-06T01:33:07.904Z,5.42
2017-02-06T01:34:07.609Z,5.31
2017-02-06T01:35:07.077Z,5.44
2017-02-06T01:36:07.662Z,5.36
2017-02-06T01:37:07.207Z,5.17
2017-02-06T01:38:07.853Z,5.12
2017-02-06T01:39:07.483Z,5.10
2017-02-06T01:40:08.228Z,5.22
2017-02-06T01:41:07.810Z,5.35
2017-02-06T01:42:07.329Z,5.38
2017-02-06T01:43:07.874Z,5.04
2017-02-06T01:44:07.574Z,5.26
2017-02-06T01:45:08.067Z,5.33
2017-02-06T01:46:07.556Z,5.30
2017-02-06T01:47:08.350Z,5.35
2017-02-06T01:48:07.862Z,5.41
2017-02-06T01:49:07.419Z,5.37
2017-02-06T01:50:07.910Z,5.34
2017-02-06T01:51:07.813Z,5.37
2017-02-06T01:52:07.394Z,5.26
2017-02-06T01:53:08.009Z,5.23
2017-02-06T01:54:07.809Z,5.30
2017-02-06T01:55:07.299Z,5.30
2017-02-06T01:56:07.833Z,5.31
2017-02-06T01:57:07.556Z,5.32
2017-02-06T01:58:08.065Z,5.51
2017-02-06T01:59:07.593Z,5.21
2017-02-06T02:00:07.126Z,5.18
2017-02-06T02:01:07.557Z,5.21
2017-02-06T02:02:07.460Z,5.23
2017-02-06T02:03:07.986Z,5.32
2017-02-06T02:04:07.804Z,5.35
2017-02-06T02:05:07.401Z,5.12
2017-02-06T02:06:07.951Z,5.25
2017-02-06T02:07:07.520Z,5.22
2017-02-06T02:08:08.025Z,5.18
2017-02-06T02:09:07.549Z,5.15
2017-02-06T02:10:08.036Z,5.24
2017-02-06T02:11:07.605Z,5.26
2017-02-06T02:12:07.128Z,5.27
2017-02-06T02:13:07.916Z,5.27
2017-02-06T02:14:07.463Z,5.13
2017-02-06T02:15:07.974Z,5.17
2017-02-06T02:16:07.465Z,5.32
2017-02-06T02:17:08.029Z,5.37
2017-02-06T02:18:07.164Z,5.28
2017-02-06T02:19:08.113Z,5.21
2017-02-06T02:20:07.604Z,5.13
2017-02-06T02:21:07.114Z,5.01
2017-02-06T02:22:07.586Z,4.92
2017-02-06T02:23:07.114Z,4.65
2017-02-06T02:24:07.605Z,4.92
2017-02-06T02:25:07.140Z,5.07
2017-02-06T02:26:07.718Z,5.24
2017-02-06T02:27:07.487Z,5.30
2017-02-06T02:28:08.068Z,5.38
2017-02-06T02:29:07.570Z,5.13
2017-02-06T02:30:08.194Z,5.22
2017-02-06T02:31:07.684Z,4.96
2017-02-06T02:32:07.154Z,4.88
2017-02-06T02:33:07.666Z,4.94
2017-02-06T02:34:07.165Z,5.01
2017-02-06T02:35:07.690Z,4.90
2017-02-06T02:36:07.420Z,4.98
2017-02-06T02:37:08.185Z,5.08
2017-02-06T02:38:07.764Z,5.18
2017-02-06T02:39:07.396Z,5.19
2017-02-06T02:40:07.926Z,5.03
2017-02-06T02:41:07.608Z,5.10
2017-02-06T02:42:07.137Z,5.08
2017-02-06T02:43:07.726Z,5.19
2017-02-06T02:44:07.207Z,5.18
2017-02-06T02:45:07.854Z,5.08
2017-02-06T02:46:07.396Z,5.18
2017-02-06T02:47:08.019Z,4.92
2017-02-06T02:48:08.466Z,5.04
2017-02-06T02:49:08.239Z,5.13
2017-02-06T02:50:07.784Z,5.05
2017-02-06T02:51:07.336Z,5.17
2017-02-06T02:52:07.914Z,5.14
2017-02-06T02:53:07.409Z,5.28
2017-02-06T02:54:07.985Z,4.95
2017-02-06T02:55:07.498Z,4.91
2017-02-06T02:56:08.167Z,4.99
2017-02-06T02:57:07.835Z,5.08
2017-02-06T02:58:07.286Z,5.24
2017-02-06T02:59:07.859Z,5.06
2017-02-06T03:00:07.383Z,5.02
2017-02-06T03:01:08.117Z,5.20
2017-02-06T03:02:07.681Z,5.09
2017-02-06T03:03:07.155Z,5.04
2017-02-06T03:04:07.842Z,5.01
2017-02-06T03:05:07.448Z,5.06
2017-02-06T03:06:08.033Z,4.74
2017-02-06T03:07:07.514Z,4.89
2017-02-06T03:08:07.721Z,4.95
2017-02-06T03:09:07.193Z,5.07
2017-02-06T03:10:07.992Z,5.05
2017-02-06T03:11:07.515Z,5.03
2017-02-06T03:12:08.004Z,4.87
2017-02-06T03:13:07.559Z,5.02
2017-02-06T03:14:08.025Z,4.69
2017-02-06T03:15:07.548Z,4.77
2017-02-06T03:16:08.027Z,4.58
2017-02-06T03:17:07.842Z,4.69
2017-02-06T03:18:07.427Z,4.73
2017-02-06T03:19:07.976Z,4.73
2017-02-06T03:20:07.666Z,4.77
2017-02-06T03:21:07.210Z,4.91
2017-02-06T03:22:07.738Z,4.98
2017-02-06T03:23:07.390Z,4.99
2017-02-06T03:24:07.882Z,4.92
2017-02-06T03:25:07.415Z,5.00
2017-02-06T03:26:08.012Z,4.94
2017-02-06T03:27:07.574Z,5.04
2017-02-06T03:28:08.230Z,5.09
2017-02-06T03:29:08.111Z,5.06
2017-02-06T03:30:07.652Z,5.00
2017-02-06T03:31:07.244Z,5.00
2017-02-06T03:32:07.896Z,5.04
2017-02-06T03:33:07.361Z,5.15
2017-02-06T03:34:08.168Z,4.90
2017-02-06T03:35:07.698Z,5.01
2017-02-06T03:36:07.222Z,4.78
2017-02-06T03:37:07.747Z,4.68
2017-02-06T03:38:07.281Z,4.68
2017-02-06T03:39:07.825Z,4.70
2017-02-06T03:40:07.580Z,4.78
2017-02-06T03:41:07.227Z,4.86
2017-02-06T03:42:07.707Z,4.91
2017-02-06T03:43:07.738Z,4.78
2017-02-06T03:44:07.335Z,4.95
2017-02-06T03:45:07.851Z,4.83
2017-02-06T03:46:07.630Z,5.02
2017-02-06T03:47:07.306Z,4.68
2017-02-06T03:48:07.871Z,4.64
2017-02-06T03:49:07.376Z,4.63
2017-02-06T03:50:07.890Z,4.62
2017-02-06T03:51:07.423Z,4.68
2017-02-06T03:52:07.956Z,4.89
2017-02-06T03:53:07.567Z,4.71
2017-02-06T03:54:08.120Z,4.82
2017-02-06T03:55:07.697Z,4.64
2017-02-06T03:56:07.228Z,4.74
2017-02-06T03:57:07.925Z,4.85
2017-02-06T03:58:07.418Z,4.83
2017-02-06T03:59:07.968Z,4.82
2017-02-06T04:00:07.496Z,4.46
2017-02-06T04:01:08.084Z,4.58
2017-02-06T04:02:07.690Z,4.83
2017-02-06T04:03:07.325Z,4.90
2017-02-06T04:04:07.898Z,4.65
2017-02-06T04:05:07.391Z,4.84
2017-02-06T04:06:08.021Z,4.74
2017-02-06T04:07:08.032Z,4.94
2017-02-06T04:08:07.488Z,4.89
2017-02-06T04:09:07.963Z,4.83
2017-02-06T04:10:07.777Z,4.69
2017-02-06T04:11:07.296Z,4.79
2017-02-06T04:12:07.857Z,4.60
2017-02-06T04:13:07.499Z,4.70
2017-02-06T04:14:08.234Z,4.63
2017-02-06T04:15:07.839Z,4.24
2017-02-06T04:16:07.437Z,4.43
2017-02-06T04:17:08.257Z,4.60
2017-02-06T04:18:08.007Z,4.75
2017-02-06T04:19:07.491Z,4.59
2017-02-06T04:20:08.057Z,4.73
2017-02-06T04:21:07.633Z,4.78
2017-02-06T04:22:07.082Z,4.95
2017-02-06T04:23:07.665Z,4.69
2017-02-06T04:24:07.600Z,4.78
2017-02-06T04:25:07.075Z,4.71
2017-02-06T04:26:07.695Z,4.73
2017-02-06T04:27:07.221Z,4.81
2017-02-06T04:28:07.764Z,4.79
2017-02-06T04:29:07.214Z,4.71
2017-02-06T04:30:07.769Z,4.83
2017-02-06T04:31:07.250Z,4.66
2017-02-06T04:32:07.839Z,4.41
2017-02-06T04:33:07.390Z,4.55
2017-02-06T04:34:08.142Z,4.70
2017-02-06T04:35:07.699Z,4.49
2017-02-06T04:36:07.277Z,4.57
2017-02-06T04:37:07.917Z,4.66
2017-02-06T04:38:07.452Z,4.69
2017-02-06T04:39:08.004Z,4.57
2017-02-06T04:40:07.494Z,4.63
2017-02-06T04:41:08.149Z,4.60
2017-02-06T04:42:07.619Z,4.60
2017-02-06T04:43:07.184Z,4.55
2017-02-06T04:44:07.643Z,4.70
2017-02-06T04:45:07.148Z,4.84
2017-02-06T04:46:07.717Z,4.60
2017-02-06T04:47:07.354Z,4.63
2017-02-06T04:48:07.921Z,4.70
2017-02-06T04:49:07.496Z,4.60
2017-02-06T04:50:07.963Z,4.67
2017-02-06T04:51:07.507Z,4.17
2017-02-06T04:52:08.085Z,4.34
2017-02-06T04:53:07.756Z,4.45
2017-02-06T04:54:07.335Z,4.48
2017-02-06T04:55:07.842Z,4.55
2017-02-06T04:56:07.437Z,4.40
2017-02-06T04:57:07.999Z,4.53
2017-02-06T04:58:07.632Z,4.62
2017-02-06T04:59:07.128Z,4.41
2017-02-06T05:00:07.943Z,4.54
2017-02-06T05:01:07.431Z,4.51
2017-02-06T05:02:08.049Z,4.43
2017-02-06T05:03:07.602Z,4.44
2017-02-06T05:04:07.187Z,4.39
2017-02-06T05:05:07.770Z,4.21
2017-02-06T05:06:07.327Z,4.21
2017-02-06T05:07:08.077Z,4.44
2017-02-06T05:08:07.627Z,4.26
2017-02-06T05:09:07.170Z,4.48
2017-02-06T05:10:07.919Z,4.43
2017-02-06T05:11:07.708Z,4.34
2017-02-06T05:12:07.165Z,4.54
2017-02-06T05:13:07.871Z,4.50
2017-02-06T05:14:07.428Z,4.40
2017-02-06T05:15:08.074Z,4.44
2017-02-06T05:16:08.004Z,4.27
2017-02-06T05:17:07.772Z,4.29
2017-02-06T05:18:07.308Z,4.43
2017-02-06T05:19:07.859Z,4.58
2017-02-06T05:20:07.588Z,4.61
2017-02-06T05:21:07.196Z,4.65
2017-02-06T05:22:07.699Z,4.64
2017-02-06T05:23:07.265Z,4.57
2017-02-06T05:24:07.711Z,4.58
2017-02-06T05:25:09.955Z,4.68
2017-02-06T05:26:07.171Z,4.43
2017-02-06T05:27:07.625Z,4.36
2017-02-06T05:28:07.167Z,4.22
2017-02-06T05:29:07.636Z,4.47
2017-02-06T05:30:07.404Z,4.41
2017-02-06T05:31:08.140Z,4.36
2017-02-06T05:32:07.640Z,4.27
2017-02-06T05:33:07.180Z,4.36
2017-02-06T05:34:07.869Z,4.46
2017-02-06T05:35:07.351Z,4.47
2017-02-06T05:36:07.924Z,4.55
2017-02-06T05:37:07.660Z,4.40
2017-02-06T05:38:07.319Z,4.41
2017-02-06T05:39:07.909Z,4.41
2017-02-06T05:40:07.492Z,4.32
2017-02-06T05:41:08.040Z,4.36
2017-02-06T05:42:07.501Z,4.29
2017-02-06T05:43:08.074Z,4.39
2017-02-06T05:44:07.642Z,4.28
2017-02-06T05:45:07.124Z,4.58
2017-02-06T05:46:07.723Z,4.54
2017-02-06T05:47:07.360Z,4.39
2017-02-06T05:48:08.516Z,4.36
2017-02-06T05:49:08.129Z,4.51
2017-02-06T05:50:07.938Z,4.47
2017-02-06T05:51:07.524Z,4.25
2017-02-06T05:52:08.111Z,4.37
2017-02-06T05:53:07.709Z,4.38
2017-02-06T05:54:07.454Z,4.47
2017-02-06T05:55:08.032Z,4.46
2017-02-06T05:56:07.545Z,4.45
2017-02-06T05:57:08.038Z,4.51
2017-02-06T05:58:07.531Z,4.61
2017-02-06T05:59:08.148Z,4.58
2017-02-06T06:00:07.802Z,4.57
2017-02-06T06:01:07.332Z,4.50
2017-02-06T06:02:07.870Z,4.51
2017-02-06T06:03:08.080Z,4.51
2017-02-06T06:04:07.649Z,4.48
2017-02-06T06:05:07.230Z,4.40
2017-02-06T06:06:07.879Z,4.43
2017-02-06T06:07:07.416Z,4.52
2017-02-06T06:08:07.907Z,4.38
2017-02-06T06:09:07.491Z,4.02
2017-02-06T06:10:08.081Z,4.20
2017-02-06T06:11:07.690Z,4.42
2017-02-06T06:12:07.315Z,4.51
2017-02-06T06:13:07.830Z,4.49
2017-02-06T06:14:07.321Z,4.28
2017-02-06T06:15:07.839Z,4.38
2017-02-06T06:16:07.654Z,4.58
2017-02-06T06:17:07.433Z,4.63
2017-02-06T06:18:08.015Z,4.53
2017-02-06T06:19:07.593Z,4.65
2017-02-06T06:20:07.236Z,4.58
2017-02-06T06:21:07.938Z,4.55
2017-02-06T06:22:07.472Z,4.69
2017-02-06T06:23:08.061Z,4.60
2017-02-06T06:24:07.607Z,4.38
2017-02-06T06:25:07.132Z,4.37
2017-02-06T06:26:07.773Z,4.35
2017-02-06T06:27:07.279Z,4.55
2017-02-06T06:28:07.845Z,4.64
2017-02-06T06:29:07.741Z,4.39
2017-02-06T06:30:07.522Z,4.53
2017-02-06T06:31:08.120Z,4.63
2017-02-06T06:32:07.786Z,4.57
2017-02-06T06:33:07.433Z,4.50
2017-02-06T06:34:08.056Z,4.36
2017-02-06T06:35:07.684Z,4.50
2017-02-06T06:36:07.210Z,4.55
2017-02-06T06:37:07.982Z,4.68
2017-02-06T06:38:07.487Z,4.51
2017-02-06T06:39:08.118Z,4.36
2017-02-06T06:40:07.751Z,4.36
2017-02-06T06:41:07.513Z,4.41
2017-02-06T06:42:08.186Z,4.32
2017-02-06T06:43:07.828Z,4.49
2017-02-06T06:44:07.329Z,4.26
2017-02-06T06:45:08.011Z,4.26
2017-02-06T06:46:07.466Z,4.27
2017-02-06T06:47:08.142Z,4.28
2017-02-06T06:48:07.655Z,4.30
2017-02-06T06:49:07.154Z,4.32
2017-02-06T06:50:07.992Z,4.35
2017-02-06T06:51:08.518Z,4.35
2017-02-06T06:52:08.005Z,4.33
2017-02-06T06:53:07.863Z,4.34
2017-02-06T06:54:07.381Z,4.42
2017-02-06T06:55:08.851Z,4.23
2017-02-06T06:56:07.815Z,4.20
2017-02-06T06:57:07.323Z,4.28
2017-02-06T06:58:07.857Z,4.32
2017-02-06T06:59:07.434Z,4.39
2017-02-06T07:00:08.068Z,4.35
2017-02-06T07:01:07.579Z,4.40
2017-02-06T07:02:07.206Z,4.42
2017-02-06T07:03:07.817Z,4.43
2017-02-06T07:04:07.287Z,4.59
2017-02-06T07:05:07.854Z,4.63
2017-02-06T07:06:07.415Z,4.39
2017-02-06T07:07:08.024Z,4.54
2017-02-06T07:08:07.756Z,4.54
2017-02-06T07:09:07.309Z,4.50
2017-02-06T07:10:07.834Z,4.50
2017-02-06T07:11:07.550Z,4.66
2017-02-06T07:12:08.102Z,4.64
2017-02-06T07:13:07.661Z,4.33
2017-02-06T07:14:07.308Z,4.39
2017-02-06T07:15:07.823Z,4.49
2017-02-06T07:16:07.324Z,4.46
2017-02-06T07:17:07.963Z,4.56
2017-02-06T07:18:07.579Z,4.63
2017-02-06T07:19:07.363Z,4.63
2017-02-06T07:20:07.889Z,4.52
2017-02-06T07:21:07.445Z,4.45
2017-02-06T07:22:08.098Z,4.51
2017-02-06T07:23:07.814Z,4.04
2017-02-06T07:24:07.292Z,4.32
2017-02-06T07:25:07.410Z,4.21
2017-02-06T07:26:08.000Z,4.19
2017-02-06T07:27:07.596Z,4.36
2017-02-06T07:28:26.147Z,4.40
2017-02-06T07:29:07.826Z,4.53
2017-02-06T07:30:07.489Z,4.45
2017-02-06T07:31:07.943Z,4.50
2017-02-06T07:32:07.555Z,4.63
2017-02-06T07:33:08.174Z,4.58
2017-02-06T07:34:07.791Z,4.60
2017-02-06T07:35:07.344Z,4.57
2017-02-06T07:36:07.866Z,4.64
2017-02-06T07:37:07.633Z,4.49
2017-02-06T07:38:07.205Z,4.30
2017-02-06T07:39:07.936Z,4.48
2017-02-06T07:40:07.689Z,4.43
2017-02-06T07:41:07.166Z,4.32
2017-02-06T07:42:07.730Z,4.34
2017-02-06T07:43:07.222Z,4.42
2017-02-06T07:44:07.794Z,4.39
2017-02-06T07:45:07.258Z,4.46
2017-02-06T07:46:07.618Z,4.48
2017-02-06T07:47:07.157Z,4.36
2017-02-06T07:48:07.652Z,4.41
2017-02-06T07:49:07.204Z,4.63
2017-02-06T07:50:07.680Z,4.84
2017-02-06T07:51:07.253Z,4.85
2017-02-06T07:52:07.760Z,4.31
2017-02-06T07:53:07.919Z,4.17
2017-02-06T07:54:07.459Z,4.42
2017-02-06T07:55:08.004Z,4.54
2017-02-06T07:56:07.683Z,4.49
2017-02-06T07:57:07.195Z,4.54
2017-02-06T07:58:07.802Z,4.61
2017-02-06T07:59:08.133Z,4.74
2017-02-06T08:00:07.838Z,4.64
2017-02-06T08:01:07.332Z,4.66
2017-02-06T08:02:07.850Z,4.73
2017-02-06T08:03:07.363Z,4.73
2017-02-06T08:04:07.857Z,4.65
2017-02-06T08:05:07.473Z,4.68
2017-02-06T08:06:08.011Z,4.70
2017-02-06T08:07:07.603Z,4.63
2017-02-06T08:08:07.146Z,4.75
2017-02-06T08:09:07.811Z,4.49
2017-02-06T08:10:07.307Z,4.70
2017-02-06T08:11:07.898Z,4.52
2017-02-06T08:12:07.384Z,4.65
2017-02-06T08:13:07.931Z,4.39
2017-02-06T08:14:07.436Z,4.59
2017-02-06T08:15:07.987Z,4.61
2017-02-06T08:16:07.450Z,4.67
2017-02-06T08:17:08.232Z,4.76
2017-02-06T08:18:07.799Z,4.53
2017-02-06T08:19:07.333Z,4.74
2017-02-06T08:20:07.959Z,4.69
2017-02-06T08:21:07.494Z,4.78
2017-02-06T08:22:08.075Z,4.86
2017-02-06T08:23:07.830Z,4.89
2017-02-06T08:24:07.396Z,4.85
2017-02-06T08:25:08.103Z,4.86
2017-02-06T08:26:07.605Z,4.95
2017-02-06T08:27:07.204Z,4.74
2017-02-06T08:28:07.719Z,4.72
2017-02-06T08:29:07.214Z,4.97
2017-02-06T08:30:07.729Z,4.86
2017-02-06T08:31:07.254Z,4.92
2017-02-06T08:32:07.763Z,4.78
2017-02-06T08:33:07.605Z,4.68
2017-02-06T08:34:07.137Z,4.75
2017-02-06T08:35:07.734Z,4.89
2017-02-06T08:36:07.240Z,4.94
2017-02-06T08:37:07.804Z,4.70
2017-02-06T08:38:07.423Z,4.91
2017-02-06T08:39:08.068Z,4.85
2017-02-06T08:40:07.589Z,4.62
2017-02-06T08:41:08.358Z,4.83
2017-02-06T08:42:08.207Z,4.78
2017-02-06T08:43:08.025Z,4.94
2017-02-06T08:44:07.911Z,4.80
2017-02-06T08:45:07.409Z,4.87
2017-02-06T08:46:08.200Z,4.78
2017-02-06T08:47:07.731Z,4.66
2017-02-06T08:48:07.326Z,4.78
2017-02-06T08:49:08.064Z,4.91
2017-02-06T08:50:07.563Z,5.06
2017-02-06T08:51:08.204Z,4.84
2017-02-06T08:52:07.917Z,4.92
2017-02-06T08:53:07.596Z,5.09
2017-02-06T08:54:07.097Z,4.93
2017-02-06T08:55:07.591Z,4.85
2017-02-06T08:56:07.374Z,4.91
2017-02-06T08:57:07.952Z,4.95
2017-02-06T08:58:07.518Z,4.79
2017-02-06T08:59:08.219Z,4.83
2017-02-06T09:00:07.827Z,4.74
2017-02-06T09:01:07.672Z,4.73
2017-02-06T09:02:07.470Z,4.82
2017-02-06T09:03:07.880Z,4.73
2017-02-06T09:04:07.988Z,4.87
2017-02-06T09:05:07.559Z,5.06
2017-02-06T09:06:08.074Z,5.01
2017-02-06T09:07:07.618Z,5.17
2017-02-06T09:08:07.207Z,5.07
2017-02-06T09:09:07.793Z,4.85
2017-02-06T09:10:07.278Z,4.76
2017-02-06T09:11:07.817Z,4.94
2017-02-06T09:12:07.538Z,4.79
2017-02-06T09:13:08.275Z,4.81
2017-02-06T09:14:07.805Z,4.69
2017-02-06T09:15:07.896Z,4.77
2017-02-06T09:16:07.532Z,4.83
2017-02-06T09:17:08.219Z,4.88
2017-02-06T09:18:07.767Z,4.90
2017-02-06T09:19:07.298Z,4.74
2017-02-06T09:20:08.762Z,5.02
2017-02-06T09:21:07.306Z,4.74
2017-02-06T09:22:08.169Z,4.72
2017-02-06T09:23:08.003Z,4.70
2017-02-06T09:24:07.475Z,4.90
2017-02-06T09:25:08.022Z,4.94
2017-02-06T09:26:07.487Z,4.92
2017-02-06T09:27:08.003Z,4.96
2017-02-06T09:28:07.112Z,4.87
2017-02-06T09:29:07.604Z,5.05
2017-02-06T09:30:07.183Z,4.83
2017-02-06T09:31:07.617Z,4.92
2017-02-06T09:32:07.085Z,4.81
2017-02-06T09:33:07.722Z,4.75
2017-02-06T09:34:07.205Z,4.79
2017-02-06T09:35:07.754Z,4.85
2017-02-06T09:36:07.258Z,4.98
2017-02-06T09:37:07.764Z,4.80
2017-02-06T09:38:07.537Z,4.70
2017-02-06T09:39:08.183Z,4.70
2017-02-06T09:40:08.125Z,4.68
2017-02-06T09:41:07.875Z,4.72
2017-02-06T09:42:07.611Z,4.66
2017-02-06T09:43:07.541Z,4.71
2017-02-06T09:44:07.292Z,4.67
2017-02-06T09:45:07.878Z,4.41
2017-02-06T09:46:07.580Z,4.54
2017-02-06T09:47:07.225Z,4.65
2017-02-06T09:48:07.900Z,4.65
2017-02-06T09:49:07.425Z,4.73
2017-02-06T09:50:07.924Z,4.56
2017-02-06T09:51:07.651Z,4.74
2017-02-06T09:52:07.164Z,4.67
2017-02-06T09:53:07.922Z,4.81
2017-02-06T09:54:07.564Z,4.80
2017-02-06T09:55:08.102Z,4.94
2017-02-06T09:56:07.571Z,4.66
2017-02-06T09:57:08.103Z,4.78
2017-02-06T09:58:07.648Z,4.82
2017-02-06T09:59:07.058Z,5.01
2017-02-06T10:00:07.796Z,4.71
2017-02-06T10:01:07.313Z,4.81
2017-02-06T10:02:07.774Z,4.67
2017-02-06T10:03:07.300Z,4.68
2017-02-06T10:04:07.815Z,4.74
2017-02-06T10:05:07.325Z,4.72
2017-02-06T10:06:07.791Z,4.73
2017-02-06T10:07:07.411Z,4.91
2017-02-06T10:08:07.902Z,5.03
2017-02-06T10:09:07.460Z,5.14
2017-02-06T10:10:07.988Z,5.08
2017-02-06T10:11:07.584Z,5.21
2017-02-06T10:12:07.974Z,5.06
2017-02-06T10:13:07.932Z,4.91
2017-02-06T10:14:07.412Z,4.95
2017-02-06T10:15:08.054Z,4.95
2017-02-06T10:16:07.741Z,4.83
2017-02-06T10:17:07.438Z,4.51
2017-02-06T10:18:07.990Z,4.50
2017-02-06T10:19:07.533Z,4.82
2017-02-06T10:20:08.076Z,4.80
2017-02-06T10:21:07.540Z,4.98
2017-02-06T10:22:08.094Z,5.07
2017-02-06T10:23:07.789Z,4.78
2017-02-06T10:24:07.284Z,5.08
2017-02-06T10:25:07.933Z,5.02
2017-02-06T10:26:07.714Z,4.74
2017-02-06T10:27:07.324Z,4.69
2017-02-06T10:28:07.886Z,4.82
2017-02-06T10:29:07.411Z,4.88
2017-02-06T10:30:08.276Z,4.69
2017-02-06T10:31:07.709Z,4.97
2017-02-06T10:32:07.207Z,4.92
2017-02-06T10:33:07.788Z,4.87
2017-02-06T10:34:07.323Z,4.91
2017-02-06T10:35:07.782Z,5.10
2017-02-06T10:36:07.310Z,5.00
2017-02-06T10:37:07.779Z,4.96
2017-02-06T10:38:07.280Z,4.90
2017-02-06T10:39:07.930Z,4.86
2017-02-06T10:40:08.110Z,4.93
2017-02-06T10:41:07.582Z,4.97
2017-02-06T10:42:08.329Z,4.84
2017-02-06T10:43:07.829Z,4.95
2017-02-06T10:44:07.183Z,5.03
2017-02-06T10:45:08.193Z,4.95
2017-02-06T10:46:07.708Z,4.88
2017-02-06T10:47:07.227Z,4.83
2017-02-06T10:48:07.762Z,5.01
2017-02-06T10:49:07.219Z,4.77
2017-02-06T10:50:07.752Z,4.93
2017-02-06T10:51:07.356Z,5.10
2017-02-06T10:52:08.057Z,5.13
2017-02-06T10:53:08.053Z,4.98
2017-02-06T10:54:07.669Z,4.95
2017-02-06T10:55:07.375Z,4.64
2017-02-06T10:56:08.155Z,4.63
2017-02-06T10:57:08.559Z,4.86
2017-02-06T10:58:08.189Z,4.94
2017-02-06T10:59:07.708Z,5.01
2017-02-06T11:00:07.190Z,4.99
2017-02-06T11:01:08.112Z,5.04
2017-02-06T11:02:07.759Z,5.03
2017-02-06T11:03:07.511Z,4.88
2017-02-06T11:04:08.046Z,4.88
2017-02-06T11:05:07.754Z,4.77
2017-02-06T11:06:07.345Z,4.66
2017-02-06T11:07:07.930Z,4.77
2017-02-06T11:08:07.500Z,4.77
2017-02-06T11:09:08.034Z,4.81
2017-02-06T11:10:07.578Z,4.74
2017-02-06T11:11:08.098Z,4.83
2017-02-06T11:12:07.854Z,4.92
2017-02-06T11:13:07.396Z,4.88
2017-02-06T11:14:07.920Z,4.93
2017-02-06T11:15:07.420Z,5.02
2017-02-06T11:16:08.239Z,4.97
2017-02-06T11:17:07.857Z,4.72
2017-02-06T11:18:07.356Z,4.95
2017-02-06T11:19:08.091Z,5.03
2017-02-06T11:20:07.720Z,5.17
2017-02-06T11:21:07.352Z,5.24
2017-02-06T11:22:07.864Z,5.39
2017-02-06T11:23:07.702Z,5.39
2017-02-06T11:24:07.219Z,5.21
2017-02-06T11:25:07.973Z,5.13
2017-02-06T11:26:07.492Z,5.16
2017-02-06T11:27:08.012Z,5.11
2017-02-06T11:28:07.630Z,5.13
2017-02-06T11:29:07.099Z,5.11
2017-02-06T11:30:07.651Z,5.20
2017-02-06T11:31:07.603Z,5.31
2017-02-06T11:32:07.109Z,5.14
2017-02-06T11:33:07.739Z,5.18
2017-02-06T11:34:07.400Z,5.16
2017-02-06T11:35:07.987Z,5.21
2017-02-06T11:36:07.553Z,4.99
2017-02-06T11:37:08.342Z,5.17
2017-02-06T11:38:07.913Z,5.23
2017-02-06T11:39:07.538Z,5.21
2017-02-06T11:40:08.232Z,4.96
2017-02-06T11:41:07.783Z,5.12
2017-02-06T11:42:07.289Z,5.22
2017-02-06T11:43:08.071Z,5.24
2017-02-06T11:44:07.619Z,5.27
2017-02-06T11:45:07.105Z,5.30
2017-02-06T11:46:07.966Z,5.15
2017-02-06T11:47:07.612Z,5.29
2017-02-06T11:48:07.129Z,5.35
2017-02-06T11:49:07.760Z,5.66
2017-02-06T11:50:07.353Z,5.64
2017-02-06T11:51:07.901Z,5.89
2017-02-06T11:52:07.476Z,5.70
2017-02-06T11:53:08.203Z,5.40
2017-02-06T11:54:07.681Z,5.52
2017-02-06T11:55:07.271Z,5.47
2017-02-06T11:56:07.841Z,5.31
2017-02-06T11:57:07.476Z,5.68
2017-02-06T11:58:08.921Z,5.40
2017-02-06T11:59:07.414Z,5.35
2017-02-06T12:00:07.510Z,5.51
2017-02-06T12:01:08.640Z,5.47
2017-02-06T12:02:07.258Z,5.41
2017-02-06T12:03:07.744Z,5.45
2017-02-06T12:04:07.227Z,5.44
2017-02-06T12:05:07.783Z,5.23
2017-02-06T12:06:07.421Z,5.34
2017-02-06T12:07:08.005Z,5.36
2017-02-06T12:08:07.575Z,5.29
2017-02-06T12:09:07.189Z,5.53
2017-02-06T12:10:07.963Z,5.51
2017-02-06T12:11:07.485Z,5.48
2017-02-06T12:12:08.098Z,5.54
2017-02-06T12:13:07.098Z,5.47
2017-02-06T12:14:07.778Z,5.23
2017-02-06T12:15:07.317Z,5.30
2017-02-06T12:16:08.140Z,5.32
2017-02-06T12:17:07.840Z,5.36
2017-02-06T12:18:07.523Z,5.49
2017-02-06T12:19:08.231Z,5.49
2017-02-06T12:20:07.922Z,5.68
2017-02-06T12:21:07.450Z,5.49
2017-02-06T12:22:08.230Z,5.31
2017-02-06T12:23:07.970Z,5.20
2017-02-06T12:24:07.509Z,5.31
2017-02-06T12:25:08.026Z,5.38
2017-02-06T12:26:07.612Z,5.49
2017-02-06T12:27:07.283Z,5.46
2017-02-06T12:28:07.867Z,5.40
2017-02-06T12:29:07.491Z,5.31
2017-02-06T12:30:08.028Z,5.48
2017-02-06T12:31:07.537Z,5.45
2017-02-06T12:32:08.144Z,5.54
2017-02-06T12:33:07.980Z,5.42
2017-02-06T12:34:07.546Z,5.49
2017-02-06T12:35:08.057Z,5.50
2017-02-06T12:36:07.620Z,5.41
2017-02-06T12:37:07.165Z,5.46
2017-02-06T12:38:07.715Z,5.53
2017-02-06T12:39:07.282Z,5.51
2017-02-06T12:40:07.839Z,5.56
2017-02-06T12:41:07.352Z,5.49
2017-02-06T12:42:08.120Z,5.54
2017-02-06T12:43:07.750Z,5.59
2017-02-06T12:44:07.300Z,5.54
2017-02-06T12:45:07.856Z,5.54
2017-02-06T12:46:07.498Z,5.49
2017-02-06T12:47:08.107Z,5.47
2017-02-06T12:48:07.611Z,5.30
2017-02-06T12:49:07.852Z,5.34
2017-02-06T12:50:07.362Z,5.44
2017-02-06T12:51:07.855Z,5.48
2017-02-06T12:52:07.425Z,5.17
2017-02-06T12:53:08.102Z,5.30
2017-02-06T12:54:07.793Z,5.31
2017-02-06T12:55:07.275Z,5.44
2017-02-06T12:56:08.758Z,5.60
2017-02-06T12:57:07.283Z,5.58
2017-02-06T12:58:07.787Z,5.54
2017-02-06T12:59:07.579Z,5.49
2017-02-06T13:00:08.196Z,5.58
2017-02-06T13:01:07.694Z,5.55
2017-02-06T13:02:07.130Z,5.43
2017-02-06T13:03:07.230Z,5.69
2017-02-06T13:04:08.031Z,5.72
2017-02-06T13:05:27.343Z,5.62
2017-02-06T13:06:07.826Z,5.34
2017-02-06T13:07:07.443Z,5.48
2017-02-06T13:08:07.784Z,5.67
2017-02-06T13:09:07.548Z,5.57
2017-02-06T13:10:08.103Z,5.35
2017-02-06T13:11:07.758Z,5.36
2017-02-06T13:12:07.332Z,5.35
2017-02-06T13:13:08.081Z,5.31
2017-02-06T13:14:07.654Z,5.30
2017-02-06T13:15:07.431Z,5.37
2017-02-06T13:16:08.060Z,5.52
2017-02-06T13:17:07.711Z,5.52
2017-02-06T13:18:07.388Z,5.51